sensor_id;sensor_type;location;lat;lon;timestamp;P1;durP1;ratioP1;P2;durP2;ratioP2
64052;SDS011;50299;49.524;8.536;2023-02-28T00:02:22;3.90;;;3.47;;
64052;SDS011;50299;49.524;8.536;2023-02-28T00:04:49;3.88;;;3.47;;
64052;SDS011;50299;49.524;8.536;2023-02-28T00:07:19;3.25;;;2.95;;
64052;SDS011;50299;49.524;8.536;2023-02-28T00:09:45;3.10;;;2.80;;
64052;SDS011;50299;49.524;8.536;2023-02-28T00:12:11;3.50;;;3.20;;
64052;SDS011;50299;49.524;8.536;2023-02-28T00:14:38;3.60;;;3.30;;
64052;SDS011;50299;49.524;8.536;2023-02-28T00:17:04;3.78;;;3.47;;
64052;SDS011;50299;49.524;8.536;2023-02-28T00:19:31;3.67;;;3.20;;
64052;SDS011;50299;49.524;8.536;2023-02-28T00:21:57;3.50;;;3.30;;
64052;SDS011;50299;49.524;8.536;2023-02-28T00:24:23;3.35;;;3.15;;
64052;SDS011;50299;49.524;8.536;2023-02-28T00:26:50;3.22;;;2.92;;
64052;SDS011;50299;49.524;8.536;2023-02-28T00:29:16;5.22;;;3.30;;
64052;SDS011;50299;49.524;8.536;2023-02-28T00:31:43;3.80;;;3.50;;
64052;SDS011;50299;49.524;8.536;2023-02-28T00:34:09;3.40;;;3.20;;
64052;SDS011;50299;49.524;8.536;2023-02-28T00:36:35;4.35;;;3.95;;
64052;SDS011;50299;49.524;8.536;2023-02-28T00:39:02;3.55;;;3.20;;
64052;SDS011;50299;49.524;8.536;2023-02-28T00:41:29;4.90;;;3.75;;
64052;SDS011;50299;49.524;8.536;2023-02-28T00:43:55;5.47;;;3.70;;
64052;SDS011;50299;49.524;8.536;2023-02-28T00:46:22;4.05;;;3.30;;
64052;SDS011;50299;49.524;8.536;2023-02-28T00:48:48;4.43;;;4.03;;
64052;SDS011;50299;49.524;8.536;2023-02-28T00:51:15;4.20;;;3.80;;
64052;SDS011;50299;49.524;8.536;2023-02-28T00:53:41;4.75;;;4.35;;
64052;SDS011;50299;49.524;8.536;2023-02-28T00:56:07;4.78;;;4.38;;
64052;SDS011;50299;49.524;8.536;2023-02-28T00:58:34;4.00;;;3.70;;
64052;SDS011;50299;49.524;8.536;2023-02-28T01:01:01;4.32;;;3.92;;
64052;SDS011;50299;49.524;8.536;2023-02-28T01:03:27;4.72;;;4.32;;
64052;SDS011;50299;49.524;8.536;2023-02-28T01:05:54;4.82;;;4.32;;
64052;SDS011;50299;49.524;8.536;2023-02-28T01:08:20;4.30;;;3.90;;
64052;SDS011;50299;49.524;8.536;2023-02-28T01:10:47;4.35;;;4.00;;
64052;SDS011;50299;49.524;8.536;2023-02-28T01:13:14;4.90;;;4.40;;
64052;SDS011;50299;49.524;8.536;2023-02-28T01:15:41;3.88;;;3.58;;
64052;SDS011;50299;49.524;8.536;2023-02-28T01:18:12;4.75;;;4.35;;
64052;SDS011;50299;49.524;8.536;2023-02-28T01:20:38;5.05;;;4.55;;
64052;SDS011;50299;49.524;8.536;2023-02-28T01:23:05;5.30;;;4.43;;
64052;SDS011;50299;49.524;8.536;2023-02-28T01:25:33;4.57;;;4.15;;
64052;SDS011;50299;49.524;8.536;2023-02-28T01:28:01;5.60;;;4.90;;
64052;SDS011;50299;49.524;8.536;2023-02-28T01:30:27;5.63;;;4.45;;
64052;SDS011;50299;49.524;8.536;2023-02-28T01:32:54;5.57;;;5.05;;
64052;SDS011;50299;49.524;8.536;2023-02-28T01:35:23;5.88;;;5.10;;
64052;SDS011;50299;49.524;8.536;2023-02-28T01:37:49;5.35;;;4.88;;
64052;SDS011;50299;49.524;8.536;2023-02-28T01:40:16;5.03;;;4.63;;
64052;SDS011;50299;49.524;8.536;2023-02-28T01:42:42;5.90;;;5.07;;
64052;SDS011;50299;49.524;8.536;2023-02-28T01:45:30;4.68;;;4.28;;
64052;SDS011;50299;49.524;8.536;2023-02-28T01:47:58;5.18;;;4.78;;
64052;SDS011;50299;49.524;8.536;2023-02-28T01:50:29;6.13;;;5.65;;
64052;SDS011;50299;49.524;8.536;2023-02-28T01:53:00;5.25;;;4.85;;
64052;SDS011;50299;49.524;8.536;2023-02-28T01:55:30;5.95;;;5.53;;
64052;SDS011;50299;49.524;8.536;2023-02-28T01:57:59;6.40;;;5.30;;
64052;SDS011;50299;49.524;8.536;2023-02-28T02:00:28;6.13;;;5.53;;
64052;SDS011;50299;49.524;8.536;2023-02-28T02:02:57;4.85;;;4.40;;
64052;SDS011;50299;49.524;8.536;2023-02-28T02:05:30;5.88;;;5.38;;
64052;SDS011;50299;49.524;8.536;2023-02-28T02:07:58;6.90;;;5.45;;
64052;SDS011;50299;49.524;8.536;2023-02-28T02:10:36;5.78;;;5.32;;
64052;SDS011;50299;49.524;8.536;2023-02-28T02:13:18;5.75;;;5.18;;
64052;SDS011;50299;49.524;8.536;2023-02-28T02:26:43;7.00;;;6.40;;
64052;SDS011;50299;49.524;8.536;2023-02-28T02:32:28;6.47;;;5.80;;
64052;SDS011;50299;49.524;8.536;2023-02-28T02:35:16;5.97;;;5.35;;
64052;SDS011;50299;49.524;8.536;2023-02-28T02:37:52;6.43;;;5.82;;
64052;SDS011;50299;49.524;8.536;2023-02-28T02:40:36;6.90;;;6.25;;
64052;SDS011;50299;49.524;8.536;2023-02-28T02:43:11;8.10;;;7.28;;
64052;SDS011;50299;49.524;8.536;2023-02-28T02:45:51;6.15;;;5.55;;
64052;SDS011;50299;49.524;8.536;2023-02-28T02:48:21;6.60;;;5.90;;
64052;SDS011;50299;49.524;8.536;2023-02-28T02:50:55;5.53;;;5.05;;
64052;SDS011;50299;49.524;8.536;2023-02-28T02:53:30;6.63;;;6.03;;
64052;SDS011;50299;49.524;8.536;2023-02-28T02:56:04;6.50;;;5.90;;
64052;SDS011;50299;49.524;8.536;2023-02-28T02:58:33;9.35;;;6.72;;
64052;SDS011;50299;49.524;8.536;2023-02-28T03:01:09;7.10;;;5.90;;
64052;SDS011;50299;49.524;8.536;2023-02-28T03:03:40;8.20;;;6.03;;
64052;SDS011;50299;49.524;8.536;2023-02-28T03:06:07;7.85;;;6.72;;
64052;SDS011;50299;49.524;8.536;2023-02-28T03:08:35;7.05;;;5.70;;
64052;SDS011;50299;49.524;8.536;2023-02-28T03:11:04;6.32;;;5.72;;
64052;SDS011;50299;49.524;8.536;2023-02-28T03:19:30;6.78;;;6.18;;
64052;SDS011;50299;49.524;8.536;2023-02-28T03:28:00;8.25;;;6.50;;
64052;SDS011;50299;49.524;8.536;2023-02-28T03:33:44;7.28;;;6.57;;
64052;SDS011;50299;49.524;8.536;2023-02-28T03:36:13;7.43;;;6.72;;
64052;SDS011;50299;49.524;8.536;2023-02-28T03:38:50;7.35;;;6.65;;
64052;SDS011;50299;49.524;8.536;2023-02-28T03:41:22;8.25;;;7.43;;
64052;SDS011;50299;49.524;8.536;2023-02-28T03:44:03;6.75;;;6.10;;
64052;SDS011;50299;49.524;8.536;2023-02-28T03:46:55;7.03;;;6.35;;
64052;SDS011;50299;49.524;8.536;2023-02-28T03:49:27;7.60;;;6.68;;
64052;SDS011;50299;49.524;8.536;2023-02-28T03:51:58;7.38;;;6.68;;
64052;SDS011;50299;49.524;8.536;2023-02-28T03:54:28;7.00;;;6.30;;
64052;SDS011;50299;49.524;8.536;2023-02-28T03:59:56;8.23;;;7.28;;
64052;SDS011;50299;49.524;8.536;2023-02-28T04:02:26;7.05;;;6.35;;
64052;SDS011;50299;49.524;8.536;2023-02-28T04:04:53;7.20;;;6.10;;
64052;SDS011;50299;49.524;8.536;2023-02-28T04:07:20;6.85;;;6.18;;
64052;SDS011;50299;49.524;8.536;2023-02-28T04:09:46;7.22;;;6.32;;
64052;SDS011;50299;49.524;8.536;2023-02-28T04:12:13;6.65;;;6.05;;
64052;SDS011;50299;49.524;8.536;2023-02-28T04:14:39;6.50;;;5.90;;
64052;SDS011;50299;49.524;8.536;2023-02-28T04:17:06;6.88;;;6.28;;
64052;SDS011;50299;49.524;8.536;2023-02-28T04:19:33;8.15;;;6.25;;
64052;SDS011;50299;49.524;8.536;2023-02-28T04:22:02;7.50;;;6.80;;
64052;SDS011;50299;49.524;8.536;2023-02-28T04:24:28;6.85;;;6.25;;
64052;SDS011;50299;49.524;8.536;2023-02-28T04:26:56;9.13;;;8.45;;
64052;SDS011;50299;49.524;8.536;2023-02-28T04:29:28;7.68;;;6.85;;
64052;SDS011;50299;49.524;8.536;2023-02-28T04:31:55;7.45;;;6.75;;
64052;SDS011;50299;49.524;8.536;2023-02-28T04:34:30;7.13;;;6.22;;
64052;SDS011;50299;49.524;8.536;2023-02-28T04:36:57;8.55;;;6.95;;
64052;SDS011;50299;49.524;8.536;2023-02-28T04:39:38;6.85;;;6.18;;
64052;SDS011;50299;49.524;8.536;2023-02-28T04:42:05;7.45;;;6.75;;
64052;SDS011;50299;49.524;8.536;2023-02-28T04:44:32;8.30;;;7.50;;
64052;SDS011;50299;49.524;8.536;2023-02-28T04:46:59;7.15;;;5.95;;
64052;SDS011;50299;49.524;8.536;2023-02-28T04:49:25;7.60;;;6.45;;
64052;SDS011;50299;49.524;8.536;2023-02-28T04:51:52;7.45;;;6.75;;
64052;SDS011;50299;49.524;8.536;2023-02-28T04:54:19;7.03;;;6.32;;
64052;SDS011;50299;49.524;8.536;2023-02-28T04:56:46;8.93;;;8.00;;
64052;SDS011;50299;49.524;8.536;2023-02-28T04:59:19;8.13;;;7.32;;
64052;SDS011;50299;49.524;8.536;2023-02-28T05:01:49;6.65;;;6.07;;
64052;SDS011;50299;49.524;8.536;2023-02-28T05:04:15;6.47;;;5.45;;
64052;SDS011;50299;49.524;8.536;2023-02-28T05:06:42;7.93;;;5.90;;
64052;SDS011;50299;49.524;8.536;2023-02-28T05:09:09;7.28;;;6.63;;
64052;SDS011;50299;49.524;8.536;2023-02-28T05:11:37;6.80;;;6.20;;
64052;SDS011;50299;49.524;8.536;2023-02-28T05:14:06;7.25;;;6.55;;
64052;SDS011;50299;49.524;8.536;2023-02-28T05:16:36;7.30;;;5.95;;
64052;SDS011;50299;49.524;8.536;2023-02-28T05:19:03;8.93;;;6.47;;
64052;SDS011;50299;49.524;8.536;2023-02-28T05:21:33;8.43;;;7.10;;
64052;SDS011;50299;49.524;8.536;2023-02-28T05:24:11;7.47;;;6.85;;
64052;SDS011;50299;49.524;8.536;2023-02-28T05:26:39;7.38;;;6.47;;
64052;SDS011;50299;49.524;8.536;2023-02-28T05:29:07;6.05;;;5.45;;
64052;SDS011;50299;49.524;8.536;2023-02-28T05:31:35;7.07;;;6.10;;
64052;SDS011;50299;49.524;8.536;2023-02-28T05:34:02;6.25;;;5.65;;
64052;SDS011;50299;49.524;8.536;2023-02-28T05:36:30;8.35;;;6.25;;
64052;SDS011;50299;49.524;8.536;2023-02-28T05:38:57;6.78;;;6.18;;
64052;SDS011;50299;49.524;8.536;2023-02-28T05:41:23;7.70;;;6.93;;
64052;SDS011;50299;49.524;8.536;2023-02-28T05:43:50;6.90;;;6.30;;
64052;SDS011;50299;49.524;8.536;2023-02-28T05:46:16;6.78;;;6.18;;
64052;SDS011;50299;49.524;8.536;2023-02-28T05:48:45;7.40;;;6.15;;
64052;SDS011;50299;49.524;8.536;2023-02-28T05:51:13;7.93;;;6.65;;
64052;SDS011;50299;49.524;8.536;2023-02-28T05:53:40;6.50;;;5.90;;
64052;SDS011;50299;49.524;8.536;2023-02-28T05:56:07;9.38;;;6.13;;
64052;SDS011;50299;49.524;8.536;2023-02-28T05:58:33;7.82;;;7.05;;
64052;SDS011;50299;49.524;8.536;2023-02-28T06:01:01;6.88;;;6.18;;
64052;SDS011;50299;49.524;8.536;2023-02-28T06:03:46;8.00;;;6.68;;
64052;SDS011;50299;49.524;8.536;2023-02-28T06:06:13;7.60;;;6.50;;
64052;SDS011;50299;49.524;8.536;2023-02-28T06:08:39;7.18;;;6.47;;
64052;SDS011;50299;49.524;8.536;2023-02-28T06:11:06;8.45;;;6.63;;
64052;SDS011;50299;49.524;8.536;2023-02-28T06:13:33;6.68;;;5.97;;
64052;SDS011;50299;49.524;8.536;2023-02-28T06:16:00;8.15;;;7.03;;
64052;SDS011;50299;49.524;8.536;2023-02-28T06:18:27;7.72;;;7.00;;
64052;SDS011;50299;49.524;8.536;2023-02-28T06:20:54;6.65;;;6.15;;
64052;SDS011;50299;49.524;8.536;2023-02-28T06:23:21;7.07;;;6.38;;
64052;SDS011;50299;49.524;8.536;2023-02-28T06:25:48;8.77;;;7.85;;
64052;SDS011;50299;49.524;8.536;2023-02-28T06:28:15;7.35;;;6.65;;
64052;SDS011;50299;49.524;8.536;2023-02-28T06:30:42;7.78;;;6.93;;
64052;SDS011;50299;49.524;8.536;2023-02-28T06:33:11;7.25;;;6.55;;
64052;SDS011;50299;49.524;8.536;2023-02-28T06:35:38;7.95;;;6.47;;
64052;SDS011;50299;49.524;8.536;2023-02-28T06:38:05;8.90;;;6.72;;
64052;SDS011;50299;49.524;8.536;2023-02-28T06:40:31;8.63;;;7.32;;
64052;SDS011;50299;49.524;8.536;2023-02-28T06:43:01;8.10;;;7.30;;
64052;SDS011;50299;49.524;8.536;2023-02-28T06:45:27;10.05;;;7.60;;
64052;SDS011;50299;49.524;8.536;2023-02-28T06:47:54;7.57;;;6.93;;
64052;SDS011;50299;49.524;8.536;2023-02-28T06:50:21;7.93;;;7.18;;
64052;SDS011;50299;49.524;8.536;2023-02-28T06:52:47;7.65;;;6.95;;
64052;SDS011;50299;49.524;8.536;2023-02-28T06:55:14;7.03;;;6.43;;
64052;SDS011;50299;49.524;8.536;2023-02-28T06:57:40;7.50;;;6.80;;
64052;SDS011;50299;49.524;8.536;2023-02-28T07:00:07;7.03;;;6.32;;
64052;SDS011;50299;49.524;8.536;2023-02-28T07:02:35;8.32;;;7.32;;
64052;SDS011;50299;49.524;8.536;2023-02-28T07:05:04;8.07;;;7.25;;
64052;SDS011;50299;49.524;8.536;2023-02-28T07:07:33;7.75;;;6.95;;
64052;SDS011;50299;49.524;8.536;2023-02-28T07:10:01;7.15;;;6.55;;
64052;SDS011;50299;49.524;8.536;2023-02-28T07:12:28;7.28;;;6.55;;
64052;SDS011;50299;49.524;8.536;2023-02-28T07:14:54;8.43;;;6.85;;
64052;SDS011;50299;49.524;8.536;2023-02-28T07:19:51;7.03;;;6.13;;
64052;SDS011;50299;49.524;8.536;2023-02-28T07:22:17;7.07;;;5.97;;
64052;SDS011;50299;49.524;8.536;2023-02-28T07:24:44;8.30;;;6.25;;
64052;SDS011;50299;49.524;8.536;2023-02-28T07:27:10;8.38;;;7.65;;
64052;SDS011;50299;49.524;8.536;2023-02-28T07:29:38;6.70;;;5.65;;
64052;SDS011;50299;49.524;8.536;2023-02-28T07:32:04;6.47;;;5.90;;
64052;SDS011;50299;49.524;8.536;2023-02-28T07:34:31;7.07;;;6.38;;
64052;SDS011;50299;49.524;8.536;2023-02-28T07:36:57;7.28;;;5.75;;
64052;SDS011;50299;49.524;8.536;2023-02-28T07:39:24;10.30;;;7.18;;
64052;SDS011;50299;49.524;8.536;2023-02-28T07:41:51;8.73;;;5.97;;
64052;SDS011;50299;49.524;8.536;2023-02-28T07:44:17;9.10;;;6.28;;
64052;SDS011;50299;49.524;8.536;2023-02-28T07:46:47;6.18;;;5.57;;
64052;SDS011;50299;49.524;8.536;2023-02-28T07:49:13;7.82;;;6.85;;
64052;SDS011;50299;49.524;8.536;2023-02-28T07:51:40;6.88;;;5.65;;
64052;SDS011;50299;49.524;8.536;2023-02-28T07:54:06;7.05;;;6.35;;
64052;SDS011;50299;49.524;8.536;2023-02-28T07:56:33;7.25;;;5.57;;
64052;SDS011;50299;49.524;8.536;2023-02-28T07:59:00;7.45;;;6.15;;
64052;SDS011;50299;49.524;8.536;2023-02-28T08:01:27;7.13;;;6.32;;
64052;SDS011;50299;49.524;8.536;2023-02-28T08:03:54;8.38;;;6.60;;
64052;SDS011;50299;49.524;8.536;2023-02-28T08:06:23;6.55;;;5.93;;
64052;SDS011;50299;49.524;8.536;2023-02-28T08:08:52;9.20;;;7.20;;
64052;SDS011;50299;49.524;8.536;2023-02-28T08:11:19;8.18;;;7.35;;
64052;SDS011;50299;49.524;8.536;2023-02-28T08:13:46;7.07;;;6.35;;
64052;SDS011;50299;49.524;8.536;2023-02-28T08:16:12;7.22;;;6.53;;
64052;SDS011;50299;49.524;8.536;2023-02-28T08:18:43;7.00;;;6.30;;
64052;SDS011;50299;49.524;8.536;2023-02-28T08:21:10;7.78;;;6.53;;
64052;SDS011;50299;49.524;8.536;2023-02-28T08:23:37;7.30;;;6.45;;
64052;SDS011;50299;49.524;8.536;2023-02-28T08:26:03;7.07;;;5.78;;
64052;SDS011;50299;49.524;8.536;2023-02-28T08:28:30;7.80;;;7.03;;
64052;SDS011;50299;49.524;8.536;2023-02-28T08:30:57;7.57;;;6.72;;
64052;SDS011;50299;49.524;8.536;2023-02-28T08:33:24;8.52;;;7.22;;
64052;SDS011;50299;49.524;8.536;2023-02-28T08:35:53;8.02;;;6.72;;
64052;SDS011;50299;49.524;8.536;2023-02-28T08:38:21;8.70;;;7.28;;
64052;SDS011;50299;49.524;8.536;2023-02-28T08:40:47;8.73;;;7.82;;
64052;SDS011;50299;49.524;8.536;2023-02-28T08:43:14;8.20;;;7.40;;
64052;SDS011;50299;49.524;8.536;2023-02-28T08:45:40;8.43;;;7.53;;
64052;SDS011;50299;49.524;8.536;2023-02-28T08:48:08;7.97;;;7.00;;
64052;SDS011;50299;49.524;8.536;2023-02-28T08:50:34;6.65;;;5.88;;
64052;SDS011;50299;49.524;8.536;2023-02-28T08:53:00;8.55;;;7.65;;
64052;SDS011;50299;49.524;8.536;2023-02-28T08:55:27;8.48;;;7.45;;
64052;SDS011;50299;49.524;8.536;2023-02-28T08:57:54;8.55;;;7.75;;
64052;SDS011;50299;49.524;8.536;2023-02-28T09:00:21;8.45;;;7.50;;
64052;SDS011;50299;49.524;8.536;2023-02-28T09:02:51;7.85;;;7.05;;
64052;SDS011;50299;49.524;8.536;2023-02-28T09:05:18;8.15;;;7.15;;
64052;SDS011;50299;49.524;8.536;2023-02-28T09:07:47;8.25;;;6.40;;
64052;SDS011;50299;49.524;8.536;2023-02-28T09:10:14;8.40;;;7.60;;
64052;SDS011;50299;49.524;8.536;2023-02-28T09:12:41;8.60;;;6.50;;
64052;SDS011;50299;49.524;8.536;2023-02-28T09:15:08;7.63;;;6.93;;
64052;SDS011;50299;49.524;8.536;2023-02-28T09:17:41;12.00;;;8.30;;
64052;SDS011;50299;49.524;8.536;2023-02-28T09:22:37;8.73;;;7.22;;
64052;SDS011;50299;49.524;8.536;2023-02-28T09:25:04;7.75;;;7.05;;
64052;SDS011;50299;49.524;8.536;2023-02-28T09:27:30;10.43;;;5.90;;
64052;SDS011;50299;49.524;8.536;2023-02-28T09:29:57;8.18;;;6.78;;
64052;SDS011;50299;49.524;8.536;2023-02-28T09:32:23;9.07;;;6.40;;
64052;SDS011;50299;49.524;8.536;2023-02-28T09:34:50;7.60;;;6.47;;
64052;SDS011;50299;49.524;8.536;2023-02-28T09:37:16;8.25;;;7.47;;
64052;SDS011;50299;49.524;8.536;2023-02-28T09:39:42;8.98;;;7.00;;
64052;SDS011;50299;49.524;8.536;2023-02-28T09:42:17;8.68;;;7.70;;
64052;SDS011;50299;49.524;8.536;2023-02-28T09:44:49;7.10;;;6.40;;
64052;SDS011;50299;49.524;8.536;2023-02-28T09:50:15;8.20;;;7.25;;
64052;SDS011;50299;49.524;8.536;2023-02-28T09:52:49;9.05;;;8.13;;
64052;SDS011;50299;49.524;8.536;2023-02-28T09:57:48;8.05;;;7.25;;
64052;SDS011;50299;49.524;8.536;2023-02-28T10:05:49;8.52;;;7.40;;
64052;SDS011;50299;49.524;8.536;2023-02-28T10:08:27;8.63;;;7.15;;
64052;SDS011;50299;49.524;8.536;2023-02-28T10:10:59;8.98;;;8.13;;
64052;SDS011;50299;49.524;8.536;2023-02-28T10:13:48;9.02;;;7.97;;
64052;SDS011;50299;49.524;8.536;2023-02-28T10:16:18;8.40;;;7.13;;
64052;SDS011;50299;49.524;8.536;2023-02-28T10:18:57;8.02;;;5.75;;
64052;SDS011;50299;49.524;8.536;2023-02-28T10:21:36;8.00;;;6.78;;
64052;SDS011;50299;49.524;8.536;2023-02-28T10:24:19;8.60;;;7.70;;
64052;SDS011;50299;49.524;8.536;2023-02-28T10:26:52;8.65;;;7.50;;
64052;SDS011;50299;49.524;8.536;2023-02-28T10:29:26;8.05;;;6.82;;
64052;SDS011;50299;49.524;8.536;2023-02-28T10:31:53;7.53;;;6.82;;
64052;SDS011;50299;49.524;8.536;2023-02-28T10:34:20;7.85;;;7.15;;
64052;SDS011;50299;49.524;8.536;2023-02-28T10:36:49;7.95;;;6.90;;
64052;SDS011;50299;49.524;8.536;2023-02-28T10:42:43;8.68;;;7.38;;
64052;SDS011;50299;49.524;8.536;2023-02-28T10:45:12;8.55;;;7.70;;
64052;SDS011;50299;49.524;8.536;2023-02-28T10:47:42;8.10;;;7.40;;
64052;SDS011;50299;49.524;8.536;2023-02-28T10:50:31;8.88;;;8.07;;
64052;SDS011;50299;49.524;8.536;2023-02-28T10:56:01;7.60;;;6.57;;
64052;SDS011;50299;49.524;8.536;2023-02-28T11:01:17;8.02;;;7.20;;
64052;SDS011;50299;49.524;8.536;2023-02-28T11:03:49;8.27;;;7.57;;
64052;SDS011;50299;49.524;8.536;2023-02-28T11:06:17;7.40;;;6.70;;
64052;SDS011;50299;49.524;8.536;2023-02-28T11:08:50;12.43;;;8.93;;
64052;SDS011;50299;49.524;8.536;2023-02-28T11:11:17;11.25;;;7.95;;
64052;SDS011;50299;49.524;8.536;2023-02-28T11:13:46;7.78;;;6.93;;
64052;SDS011;50299;49.524;8.536;2023-02-28T11:16:15;8.20;;;7.05;;
64052;SDS011;50299;49.524;8.536;2023-02-28T11:18:49;8.85;;;7.90;;
64052;SDS011;50299;49.524;8.536;2023-02-28T11:21:21;8.43;;;7.63;;
64052;SDS011;50299;49.524;8.536;2023-02-28T11:23:51;8.57;;;7.07;;
64052;SDS011;50299;49.524;8.536;2023-02-28T11:26:43;9.35;;;8.45;;
64052;SDS011;50299;49.524;8.536;2023-02-28T11:34:31;9.05;;;8.02;;
64052;SDS011;50299;49.524;8.536;2023-02-28T11:36:59;7.18;;;6.47;;
64052;SDS011;50299;49.524;8.536;2023-02-28T11:39:27;10.95;;;7.40;;
64052;SDS011;50299;49.524;8.536;2023-02-28T11:47:40;8.90;;;6.97;;
64052;SDS011;50299;49.524;8.536;2023-02-28T11:50:30;8.57;;;7.65;;
64052;SDS011;50299;49.524;8.536;2023-02-28T11:55:59;8.77;;;7.70;;
64052;SDS011;50299;49.524;8.536;2023-02-28T11:58:48;8.52;;;7.25;;
64052;SDS011;50299;49.524;8.536;2023-02-28T12:07:21;8.60;;;7.00;;
64052;SDS011;50299;49.524;8.536;2023-02-28T12:10:02;8.55;;;7.35;;
64052;SDS011;50299;49.524;8.536;2023-02-28T12:21:58;10.20;;;7.30;;
64052;SDS011;50299;49.524;8.536;2023-02-28T12:24:43;10.07;;;8.10;;
64052;SDS011;50299;49.524;8.536;2023-02-28T12:27:21;9.02;;;8.13;;
64052;SDS011;50299;49.524;8.536;2023-02-28T12:30:00;8.52;;;7.05;;
64052;SDS011;50299;49.524;8.536;2023-02-28T12:32:41;17.92;;;9.00;;
64052;SDS011;50299;49.524;8.536;2023-02-28T12:35:11;9.60;;;7.70;;
64052;SDS011;50299;49.524;8.536;2023-02-28T12:37:45;9.10;;;7.63;;
64052;SDS011;50299;49.524;8.536;2023-02-28T12:40:17;10.32;;;9.35;;
64052;SDS011;50299;49.524;8.536;2023-02-28T12:42:49;10.63;;;8.15;;
64052;SDS011;50299;49.524;8.536;2023-02-28T12:45:19;10.02;;;8.80;;
64052;SDS011;50299;49.524;8.536;2023-02-28T12:47:56;9.90;;;8.27;;
64052;SDS011;50299;49.524;8.536;2023-02-28T12:50:27;11.35;;;8.68;;
64052;SDS011;50299;49.524;8.536;2023-02-28T12:53:00;8.13;;;7.32;;
64052;SDS011;50299;49.524;8.536;2023-02-28T12:55:40;10.45;;;8.45;;
64052;SDS011;50299;49.524;8.536;2023-02-28T13:00:49;13.10;;;9.15;;
64052;SDS011;50299;49.524;8.536;2023-02-28T13:09:10;11.63;;;10.45;;
64052;SDS011;50299;49.524;8.536;2023-02-28T13:11:43;9.10;;;8.13;;
64052;SDS011;50299;49.524;8.536;2023-02-28T13:14:18;11.18;;;8.77;;
64052;SDS011;50299;49.524;8.536;2023-02-28T13:16:56;9.18;;;8.27;;
64052;SDS011;50299;49.524;8.536;2023-02-28T13:19:27;10.82;;;9.73;;
64052;SDS011;50299;49.524;8.536;2023-02-28T13:21:56;8.70;;;7.60;;
64052;SDS011;50299;49.524;8.536;2023-02-28T13:29:42;10.00;;;8.05;;
64052;SDS011;50299;49.524;8.536;2023-02-28T13:35:42;11.20;;;10.10;;
64052;SDS011;50299;49.524;8.536;2023-02-28T13:37:34;10.85;;;8.50;;
64052;SDS011;50299;49.524;8.536;2023-02-28T13:42:46;9.75;;;8.18;;
64052;SDS011;50299;49.524;8.536;2023-02-28T13:45:23;10.75;;;8.10;;
64052;SDS011;50299;49.524;8.536;2023-02-28T13:47:52;12.35;;;10.68;;
64052;SDS011;50299;49.524;8.536;2023-02-28T14:01:40;9.70;;;8.73;;
64052;SDS011;50299;49.524;8.536;2023-02-28T14:07:17;10.20;;;8.70;;
64052;SDS011;50299;49.524;8.536;2023-02-28T14:09:55;10.60;;;8.55;;
64052;SDS011;50299;49.524;8.536;2023-02-28T14:18:03;9.63;;;8.68;;
64052;SDS011;50299;49.524;8.536;2023-02-28T14:20:37;9.40;;;8.38;;
64052;SDS011;50299;49.524;8.536;2023-02-28T14:23:09;10.68;;;8.15;;
64052;SDS011;50299;49.524;8.536;2023-02-28T14:28:32;10.20;;;9.20;;
64052;SDS011;50299;49.524;8.536;2023-02-28T14:36:44;11.07;;;9.93;;
64052;SDS011;50299;49.524;8.536;2023-02-28T14:39:13;9.32;;;7.97;;
64052;SDS011;50299;49.524;8.536;2023-02-28T14:41:42;10.13;;;7.97;;
64052;SDS011;50299;49.524;8.536;2023-02-28T14:44:18;8.20;;;6.85;;
64052;SDS011;50299;49.524;8.536;2023-02-28T14:46:48;10.63;;;7.97;;
64052;SDS011;50299;49.524;8.536;2023-02-28T14:49:20;10.05;;;8.63;;
64052;SDS011;50299;49.524;8.536;2023-02-28T14:51:50;9.52;;;7.53;;
64052;SDS011;50299;49.524;8.536;2023-02-28T14:54:29;10.73;;;8.52;;
64052;SDS011;50299;49.524;8.536;2023-02-28T14:56:56;8.88;;;7.70;;
64052;SDS011;50299;49.524;8.536;2023-02-28T14:59:24;8.60;;;7.00;;
64052;SDS011;50299;49.524;8.536;2023-02-28T15:04:52;9.23;;;8.10;;
64052;SDS011;50299;49.524;8.536;2023-02-28T15:07:20;10.20;;;8.90;;
64052;SDS011;50299;49.524;8.536;2023-02-28T15:10:11;10.30;;;8.70;;
64052;SDS011;50299;49.524;8.536;2023-02-28T15:12:58;10.10;;;8.50;;
64052;SDS011;50299;49.524;8.536;2023-02-28T15:18:37;9.77;;;8.27;;
64052;SDS011;50299;49.524;8.536;2023-02-28T15:21:12;10.15;;;8.88;;
64052;SDS011;50299;49.524;8.536;2023-02-28T15:23:45;9.05;;;8.00;;
64052;SDS011;50299;49.524;8.536;2023-02-28T15:26:16;9.82;;;8.82;;
64052;SDS011;50299;49.524;8.536;2023-02-28T15:28:51;9.48;;;8.43;;
64052;SDS011;50299;49.524;8.536;2023-02-28T15:31:29;10.93;;;8.68;;
64052;SDS011;50299;49.524;8.536;2023-02-28T15:34:19;9.82;;;8.82;;
64052;SDS011;50299;49.524;8.536;2023-02-28T15:37:06;8.48;;;7.10;;
64052;SDS011;50299;49.524;8.536;2023-02-28T15:39:55;12.10;;;9.18;;
64052;SDS011;50299;49.524;8.536;2023-02-28T15:42:23;13.13;;;7.80;;
64052;SDS011;50299;49.524;8.536;2023-02-28T15:44:54;18.98;;;8.45;;
64052;SDS011;50299;49.524;8.536;2023-02-28T15:47:22;14.27;;;8.65;;
64052;SDS011;50299;49.524;8.536;2023-02-28T15:49:57;13.25;;;8.63;;
64052;SDS011;50299;49.524;8.536;2023-02-28T15:52:28;19.20;;;9.10;;
64052;SDS011;50299;49.524;8.536;2023-02-28T15:57:53;10.55;;;7.90;;
64052;SDS011;50299;49.524;8.536;2023-02-28T16:00:27;9.63;;;7.55;;
64052;SDS011;50299;49.524;8.536;2023-02-28T16:08:42;8.98;;;7.32;;
64052;SDS011;50299;49.524;8.536;2023-02-28T16:11:10;8.80;;;7.55;;
64052;SDS011;50299;49.524;8.536;2023-02-28T16:13:37;9.60;;;7.18;;
64052;SDS011;50299;49.524;8.536;2023-02-28T16:16:04;12.10;;;7.65;;
64052;SDS011;50299;49.524;8.536;2023-02-28T16:18:31;10.35;;;8.10;;
64052;SDS011;50299;49.524;8.536;2023-02-28T16:20:57;10.15;;;7.65;;
64052;SDS011;50299;49.524;8.536;2023-02-28T16:23:26;9.20;;;7.53;;
64052;SDS011;50299;49.524;8.536;2023-02-28T16:25:52;10.43;;;7.88;;
64052;SDS011;50299;49.524;8.536;2023-02-28T16:28:20;9.50;;;8.50;;
64052;SDS011;50299;49.524;8.536;2023-02-28T16:30:50;9.57;;;8.48;;
64052;SDS011;50299;49.524;8.536;2023-02-28T16:33:18;12.07;;;8.82;;
64052;SDS011;50299;49.524;8.536;2023-02-28T16:35:44;10.55;;;9.45;;
64052;SDS011;50299;49.524;8.536;2023-02-28T16:38:11;10.48;;;8.45;;
64052;SDS011;50299;49.524;8.536;2023-02-28T16:40:37;11.07;;;8.77;;
64052;SDS011;50299;49.524;8.536;2023-02-28T16:43:05;11.38;;;8.68;;
64052;SDS011;50299;49.524;8.536;2023-02-28T16:45:43;11.27;;;9.25;;
64052;SDS011;50299;49.524;8.536;2023-02-28T16:48:11;11.30;;;8.40;;
64052;SDS011;50299;49.524;8.536;2023-02-28T16:50:39;12.35;;;8.70;;
64052;SDS011;50299;49.524;8.536;2023-02-28T16:53:06;12.10;;;8.38;;
64052;SDS011;50299;49.524;8.536;2023-02-28T16:55:34;11.45;;;8.60;;
64052;SDS011;50299;49.524;8.536;2023-02-28T16:58:01;10.05;;;8.45;;
64052;SDS011;50299;49.524;8.536;2023-02-28T17:00:31;10.65;;;8.18;;
64052;SDS011;50299;49.524;8.536;2023-02-28T17:02:58;12.05;;;8.65;;
64052;SDS011;50299;49.524;8.536;2023-02-28T17:05:25;10.10;;;8.63;;
64052;SDS011;50299;49.524;8.536;2023-02-28T17:07:56;10.63;;;9.00;;
64052;SDS011;50299;49.524;8.536;2023-02-28T17:10:24;10.95;;;8.25;;
64052;SDS011;50299;49.524;8.536;2023-02-28T17:12:54;11.20;;;8.52;;
64052;SDS011;50299;49.524;8.536;2023-02-28T17:15:34;11.10;;;8.38;;
64052;SDS011;50299;49.524;8.536;2023-02-28T17:18:02;10.88;;;8.43;;
64052;SDS011;50299;49.524;8.536;2023-02-28T17:20:29;10.52;;;8.90;;
64052;SDS011;50299;49.524;8.536;2023-02-28T17:22:57;13.18;;;9.27;;
64052;SDS011;50299;49.524;8.536;2023-02-28T17:25:24;12.52;;;9.15;;
64052;SDS011;50299;49.524;8.536;2023-02-28T17:27:51;9.18;;;7.93;;
64052;SDS011;50299;49.524;8.536;2023-02-28T17:32:45;11.93;;;8.65;;
64052;SDS011;50299;49.524;8.536;2023-02-28T17:35:12;11.02;;;8.45;;